Avon, Illinois
Current Conditions -  °F | °C
As of 5:15 AM on Sunday 23 Nov 2014 (Local Time) from KMQB Reporting Station
Clear Clear  
Wind Chill:   Ceiling: Unl
Heat Index:   Visibility: 7mi
Dew Point:   Wind: 9mph
Humidity: 96%   Direction: 160°SSE
Pressure: 29.71"   Gusts: NA
Location:  40.66°N, 90.43°W
Report Text: KMQB 231115Z AUTO 16008KT 7SM CLR 08/08 A2971 RMK AO2 T00830077
Loading
Personal Weather Stations






























Interactive Weather Map New forecast layout! Learn more

10-Day Weather Forecast

Advertisements
Track Severe Weather on mobile